sensor_id;sensor_type;location;lat;lon;timestamp;P1;durP1;ratioP1;P2;durP2;ratioP2
46983;SDS011;34732;52.112;9.366;2023-02-11T10:24:09;13.82;;;7.30;;
46983;SDS011;34732;52.112;9.366;2023-02-11T10:27:33;10.95;;;6.43;;
46983;SDS011;34732;52.112;9.366;2023-02-11T10:34:24;10.23;;;6.55;;
46983;SDS011;34732;52.112;9.366;2023-02-11T10:37:46;8.90;;;5.68;;
46983;SDS011;34732;52.112;9.366;2023-02-11T10:41:16;10.80;;;5.97;;
46983;SDS011;34732;52.112;9.366;2023-02-11T10:48:37;9.60;;;5.75;;
46983;SDS011;34732;52.112;9.366;2023-02-11T10:52:16;8.98;;;5.80;;
46983;SDS011;34732;52.112;9.366;2023-02-11T10:55:50;9.20;;;4.80;;
46983;SDS011;34732;52.112;9.366;2023-02-11T10:59:20;8.38;;;4.00;;
46983;SDS011;34732;52.112;9.366;2023-02-11T11:02:55;8.25;;;4.07;;
46983;SDS011;34732;52.112;9.366;2023-02-11T11:06:33;7.95;;;4.85;;
46983;SDS011;34732;52.112;9.366;2023-02-11T11:10:07;8.05;;;3.97;;
46983;SDS011;34732;52.112;9.366;2023-02-11T11:17:17;7.03;;;4.65;;
46983;SDS011;34732;52.112;9.366;2023-02-11T11:20:41;8.57;;;4.72;;
46983;SDS011;34732;52.112;9.366;2023-02-11T11:30:58;9.25;;;4.10;;
46983;SDS011;34732;52.112;9.366;2023-02-11T11:34:32;4.20;;;3.33;;
46983;SDS011;34732;52.112;9.366;2023-02-11T11:38:01;5.10;;;3.55;;
46983;SDS011;34732;52.112;9.366;2023-02-11T11:41:27;4.75;;;3.03;;
46983;SDS011;34732;52.112;9.366;2023-02-11T11:45:25;6.05;;;3.95;;
46983;SDS011;34732;52.112;9.366;2023-02-11T11:48:49;4.22;;;3.35;;
46983;SDS011;34732;52.112;9.366;2023-02-11T11:52:27;8.18;;;3.70;;
46983;SDS011;34732;52.112;9.366;2023-02-11T11:59:47;5.93;;;3.65;;
46983;SDS011;34732;52.112;9.366;2023-02-11T12:03:15;6.25;;;3.50;;
46983;SDS011;34732;52.112;9.366;2023-02-11T12:18:42;4.15;;;3.40;;
46983;SDS011;34732;52.112;9.366;2023-02-11T12:22:36;6.50;;;3.50;;
46983;SDS011;34732;52.112;9.366;2023-02-11T12:30:10;3.88;;;3.30;;
46983;SDS011;34732;52.112;9.366;2023-02-11T12:49:43;5.35;;;2.92;;
46983;SDS011;34732;52.112;9.366;2023-02-11T12:56:55;3.88;;;2.92;;
46983;SDS011;34732;52.112;9.366;2023-02-11T13:07:53;6.07;;;4.07;;
46983;SDS011;34732;52.112;9.366;2023-02-11T13:11:27;16.60;;;10.27;;
46983;SDS011;34732;52.112;9.366;2023-02-11T13:14:55;16.75;;;11.98;;
46983;SDS011;34732;52.112;9.366;2023-02-11T13:18:59;19.27;;;13.43;;
46983;SDS011;34732;52.112;9.366;2023-02-11T13:25:47;11.90;;;9.02;;
46983;SDS011;34732;52.112;9.366;2023-02-11T13:43:33;8.65;;;5.10;;
46983;SDS011;34732;52.112;9.366;2023-02-11T13:47:04;6.65;;;4.55;;
46983;SDS011;34732;52.112;9.366;2023-02-11T13:50:36;7.30;;;4.28;;
46983;SDS011;34732;52.112;9.366;2023-02-11T13:54:00;9.05;;;4.20;;
46983;SDS011;34732;52.112;9.366;2023-02-11T14:00:46;5.60;;;4.05;;
46983;SDS011;34732;52.112;9.366;2023-02-11T14:04:22;7.18;;;3.38;;
46983;SDS011;34732;52.112;9.366;2023-02-11T14:11:50;5.38;;;3.25;;
46983;SDS011;34732;52.112;9.366;2023-02-11T14:15:18;7.65;;;3.25;;
46983;SDS011;34732;52.112;9.366;2023-02-11T14:25:35;6.80;;;3.15;;
46983;SDS011;34732;52.112;9.366;2023-02-11T14:36:28;6.40;;;2.70;;
46983;SDS011;34732;52.112;9.366;2023-02-11T14:43:56;4.45;;;2.65;;
46983;SDS011;34732;52.112;9.366;2023-02-11T14:47:28;3.95;;;2.60;;
46983;SDS011;34732;52.112;9.366;2023-02-11T14:50:57;3.42;;;2.38;;
46983;SDS011;34732;52.112;9.366;2023-02-11T14:54:22;7.30;;;3.00;;
46983;SDS011;34732;52.112;9.366;2023-02-11T14:57:55;4.10;;;2.53;;
46983;SDS011;34732;52.112;9.366;2023-02-11T15:01:38;5.13;;;2.45;;
46983;SDS011;34732;52.112;9.366;2023-02-11T15:08:56;4.10;;;2.70;;
46983;SDS011;34732;52.112;9.366;2023-02-11T15:12:26;3.15;;;2.30;;
46983;SDS011;34732;52.112;9.366;2023-02-11T15:15:53;4.95;;;2.42;;
46983;SDS011;34732;52.112;9.366;2023-02-11T15:23:06;2.90;;;2.28;;
46983;SDS011;34732;52.112;9.366;2023-02-11T15:26:35;2.50;;;2.03;;
46983;SDS011;34732;52.112;9.366;2023-02-11T15:29:58;3.70;;;2.10;;
46983;SDS011;34732;52.112;9.366;2023-02-11T15:33:24;3.55;;;2.20;;
46983;SDS011;34732;52.112;9.366;2023-02-11T15:36:51;3.65;;;2.45;;
46983;SDS011;34732;52.112;9.366;2023-02-11T15:43:44;4.25;;;2.40;;
46983;SDS011;34732;52.112;9.366;2023-02-11T15:47:12;4.30;;;2.17;;
46983;SDS011;34732;52.112;9.366;2023-02-11T15:50:47;3.90;;;2.17;;
46983;SDS011;34732;52.112;9.366;2023-02-11T15:54:17;2.72;;;2.17;;
46983;SDS011;34732;52.112;9.366;2023-02-11T15:57:59;3.20;;;2.20;;
46983;SDS011;34732;52.112;9.366;2023-02-11T16:01:35;4.38;;;2.50;;
46983;SDS011;34732;52.112;9.366;2023-02-11T16:05:03;4.20;;;2.65;;
46983;SDS011;34732;52.112;9.366;2023-02-11T16:08:31;2.38;;;2.03;;
46983;SDS011;34732;52.112;9.366;2023-02-11T16:11:55;4.50;;;2.30;;
46983;SDS011;34732;52.112;9.366;2023-02-11T16:15:30;4.78;;;2.10;;
46983;SDS011;34732;52.112;9.366;2023-02-11T16:19:02;2.78;;;1.92;;
46983;SDS011;34732;52.112;9.366;2023-02-11T16:22:35;3.72;;;2.35;;
46983;SDS011;34732;52.112;9.366;2023-02-11T16:29:34;3.33;;;2.10;;
46983;SDS011;34732;52.112;9.366;2023-02-11T16:33:01;4.43;;;2.17;;
46983;SDS011;34732;52.112;9.366;2023-02-11T16:36:27;3.05;;;2.10;;
46983;SDS011;34732;52.112;9.366;2023-02-11T16:39:54;2.05;;;1.73;;
46983;SDS011;34732;52.112;9.366;2023-02-11T16:43:20;3.45;;;2.08;;
46983;SDS011;34732;52.112;9.366;2023-02-11T16:46:51;4.80;;;2.10;;
46983;SDS011;34732;52.112;9.366;2023-02-11T16:50:21;3.83;;;2.08;;
46983;SDS011;34732;52.112;9.366;2023-02-11T16:53:44;2.70;;;1.83;;
46983;SDS011;34732;52.112;9.366;2023-02-11T16:57:17;4.40;;;1.65;;
46983;SDS011;34732;52.112;9.366;2023-02-11T17:00:45;2.80;;;1.80;;
46983;SDS011;34732;52.112;9.366;2023-02-11T17:04:09;3.13;;;1.90;;
46983;SDS011;34732;52.112;9.366;2023-02-11T17:07:38;4.10;;;1.85;;
46983;SDS011;34732;52.112;9.366;2023-02-11T17:11:06;6.88;;;2.40;;
46983;SDS011;34732;52.112;9.366;2023-02-11T17:14:32;11.60;;;2.22;;
46983;SDS011;34732;52.112;9.366;2023-02-11T17:17:55;7.18;;;1.95;;
46983;SDS011;34732;52.112;9.366;2023-02-11T17:21:19;8.25;;;2.10;;
46983;SDS011;34732;52.112;9.366;2023-02-11T17:24:48;7.18;;;2.30;;
46983;SDS011;34732;52.112;9.366;2023-02-11T17:28:09;7.97;;;2.42;;
46983;SDS011;34732;52.112;9.366;2023-02-11T17:31:33;3.33;;;1.80;;
46983;SDS011;34732;52.112;9.366;2023-02-11T17:34:59;8.98;;;2.45;;
46983;SDS011;34732;52.112;9.366;2023-02-11T17:38:27;7.20;;;2.33;;
46983;SDS011;34732;52.112;9.366;2023-02-11T17:41:48;3.92;;;1.63;;
46983;SDS011;34732;52.112;9.366;2023-02-11T17:45:14;3.00;;;1.70;;
46983;SDS011;34732;52.112;9.366;2023-02-11T17:48:40;2.83;;;1.60;;
46983;SDS011;34732;52.112;9.366;2023-02-11T17:52:04;4.63;;;1.52;;
46983;SDS011;34732;52.112;9.366;2023-02-11T17:55:33;7.80;;;2.43;;
46983;SDS011;34732;52.112;9.366;2023-02-11T17:59:00;5.30;;;2.50;;
46983;SDS011;34732;52.112;9.366;2023-02-11T18:02:24;6.13;;;2.13;;
46983;SDS011;34732;52.112;9.366;2023-02-11T18:05:48;5.68;;;2.10;;
46983;SDS011;34732;52.112;9.366;2023-02-11T18:09:14;6.78;;;2.00;;
46983;SDS011;34732;52.112;9.366;2023-02-11T18:12:37;7.03;;;2.40;;
46983;SDS011;34732;52.112;9.366;2023-02-11T18:16:01;6.75;;;2.63;;
46983;SDS011;34732;52.112;9.366;2023-02-11T18:19:28;5.65;;;2.10;;
46983;SDS011;34732;52.112;9.366;2023-02-11T18:22:51;9.63;;;1.90;;
46983;SDS011;34732;52.112;9.366;2023-02-11T18:26:13;8.60;;;2.17;;
46983;SDS011;34732;52.112;9.366;2023-02-11T18:29:37;5.55;;;1.73;;
46983;SDS011;34732;52.112;9.366;2023-02-11T18:33:05;3.95;;;1.70;;
46983;SDS011;34732;52.112;9.366;2023-02-11T18:36:34;4.93;;;2.55;;
46983;SDS011;34732;52.112;9.366;2023-02-11T18:39:57;7.65;;;2.30;;
46983;SDS011;34732;52.112;9.366;2023-02-11T18:43:19;4.18;;;2.00;;
46983;SDS011;34732;52.112;9.366;2023-02-11T18:46:43;5.40;;;2.08;;
46983;SDS011;34732;52.112;9.366;2023-02-11T18:50:14;6.18;;;2.38;;
46983;SDS011;34732;52.112;9.366;2023-02-11T18:53:52;5.75;;;2.38;;
46983;SDS011;34732;52.112;9.366;2023-02-11T18:57:18;5.72;;;2.03;;
46983;SDS011;34732;52.112;9.366;2023-02-11T19:00:46;4.35;;;1.80;;
46983;SDS011;34732;52.112;9.366;2023-02-11T19:04:14;4.20;;;1.55;;
46983;SDS011;34732;52.112;9.366;2023-02-11T19:07:41;4.50;;;1.65;;
46983;SDS011;34732;52.112;9.366;2023-02-11T19:11:05;5.80;;;1.92;;
46983;SDS011;34732;52.112;9.366;2023-02-11T19:14:29;4.20;;;1.85;;
46983;SDS011;34732;52.112;9.366;2023-02-11T19:17:53;5.57;;;1.83;;
46983;SDS011;34732;52.112;9.366;2023-02-11T19:21:19;6.95;;;1.95;;
46983;SDS011;34732;52.112;9.366;2023-02-11T19:24:45;5.45;;;2.00;;
46983;SDS011;34732;52.112;9.366;2023-02-11T19:28:08;2.53;;;1.30;;
46983;SDS011;34732;52.112;9.366;2023-02-11T19:31:33;5.05;;;1.92;;
46983;SDS011;34732;52.112;9.366;2023-02-11T19:34:59;3.55;;;1.70;;
46983;SDS011;34732;52.112;9.366;2023-02-11T19:38:23;2.50;;;1.30;;
46983;SDS011;34732;52.112;9.366;2023-02-11T19:41:44;2.40;;;1.55;;
46983;SDS011;34732;52.112;9.366;2023-02-11T19:45:12;2.25;;;1.52;;
46983;SDS011;34732;52.112;9.366;2023-02-11T19:48:35;2.67;;;1.65;;
46983;SDS011;34732;52.112;9.366;2023-02-11T19:51:59;2.85;;;1.77;;
46983;SDS011;34732;52.112;9.366;2023-02-11T19:55:24;3.10;;;1.83;;
46983;SDS011;34732;52.112;9.366;2023-02-11T19:58:48;5.93;;;1.83;;
46983;SDS011;34732;52.112;9.366;2023-02-11T20:02:15;4.32;;;1.70;;
46983;SDS011;34732;52.112;9.366;2023-02-11T20:05:44;4.85;;;1.80;;
46983;SDS011;34732;52.112;9.366;2023-02-11T20:09:09;4.15;;;1.80;;
46983;SDS011;34732;52.112;9.366;2023-02-11T20:12:55;2.67;;;1.88;;
46983;SDS011;34732;52.112;9.366;2023-02-11T20:16:18;4.10;;;1.70;;
46983;SDS011;34732;52.112;9.366;2023-02-11T20:19:43;5.85;;;2.22;;
46983;SDS011;34732;52.112;9.366;2023-02-11T20:23:09;5.53;;;2.15;;
46983;SDS011;34732;52.112;9.366;2023-02-11T20:26:35;2.95;;;2.15;;
46983;SDS011;34732;52.112;9.366;2023-02-11T20:29:59;11.75;;;3.40;;
46983;SDS011;34732;52.112;9.366;2023-02-11T20:33:22;13.90;;;10.52;;
46983;SDS011;34732;52.112;9.366;2023-02-11T20:36:46;18.30;;;11.95;;
46983;SDS011;34732;52.112;9.366;2023-02-11T20:40:18;16.38;;;12.25;;
46983;SDS011;34732;52.112;9.366;2023-02-11T20:43:43;15.68;;;12.35;;
46983;SDS011;34732;52.112;9.366;2023-02-11T20:47:07;16.75;;;12.98;;
46983;SDS011;34732;52.112;9.366;2023-02-11T20:50:32;13.82;;;11.13;;
46983;SDS011;34732;52.112;9.366;2023-02-11T20:53:56;15.00;;;9.95;;
46983;SDS011;34732;52.112;9.366;2023-02-11T20:57:19;13.30;;;9.57;;
